Time;durP1;ratioP1;P1;durP2;ratioP2;P2;SDS_P1;SDS_P2;PMS_P1;PMS_P2;Temp;Humidity;BMP_temperature;BMP_pressure;BME280_temperature;BME280_humidity;BME280_pressure;Samples;Min_cycle;Max_cycle;Signal;HPM_P1;HPM_P2
2022/11/17 00:00:09;;;;;;;;;9.50;3.75;;;;;14.15;79.21;98262.88;4828319;29;45737;-73
2022/11/17 00:02:35;;;;;;;;;7.00;3.75;;;;;14.19;78.96;98258.94;4844656;29;46613;-74
2022/11/17 00:05:01;;;;;;;;;2.75;2.75;;;;;14.19;78.95;98252.72;4828529;29;45388;-74
2022/11/17 00:07:26;;;;;;;;;4.50;3.75;;;;;14.13;78.99;98247.88;4838816;29;45441;-74
2022/11/17 00:09:51;;;;;;;;;6.25;3.75;;;;;14.13;78.66;98250.56;4845229;29;45434;-73
2022/11/17 00:15:01;;;;;;;;;7.75;4.25;;;;;14.14;78.83;98260.31;4839328;29;45567;-73
2022/11/17 00:17:26;;;;;;;;;5.00;5.00;;;;;14.07;78.67;98252.81;4845424;29;45392;-74
2022/11/17 00:22:36;;;;;;;;;4.00;3.75;;;;;14.17;78.32;98260.06;4838638;29;46981;-74
2022/11/17 00:25:01;;;;;;;;;8.25;4.00;;;;;14.04;77.88;98236.13;4820696;29;46368;-73
2022/11/17 00:27:27;;;;;;;;;12.75;6.00;;;;;14.07;78.08;98252.81;4845112;29;45469;-74
2022/11/17 00:29:52;;;;;;;;;4.75;2.50;;;;;14.06;77.75;98250.25;4827690;29;45432;-74
2022/11/17 00:35:04;;;;;;;;;4.75;4.75;;;;;14.14;77.59;98287.16;4842308;29;45362;-74
2022/11/17 00:37:34;;;;;;;;;6.00;4.00;;;;;14.16;77.92;98280.66;4844169;29;45516;-73
2022/11/17 00:40:00;;;;;;;;;9.00;4.00;;;;;14.06;77.67;98244.88;4857454;29;45587;-73
2022/11/17 00:42:25;;;;;;;;;4.50;1.75;;;;;14.12;77.45;98292.66;4846245;29;47075;-74
2022/11/17 00:44:50;;;;;;;;;5.00;3.25;;;;;14.14;77.69;98273.75;4843177;29;45428;-73
2022/11/17 00:47:15;;;;;;;;;3.50;3.00;;;;;14.07;77.18;98276.09;4861340;29;45430;-74
2022/11/17 00:49:41;;;;;;;;;5.50;3.75;;;;;14.06;77.44;98277.06;4863358;29;45592;-73
2022/11/17 00:52:06;;;;;;;;;5.00;4.00;;;;;14.12;77.14;98294.50;4862556;29;46646;-73
2022/11/17 00:54:32;;;;;;;;;4.00;3.00;;;;;14.03;76.94;98280.88;4862796;29;46850;-74
2022/11/17 00:56:57;;;;;;;;;6.75;3.00;;;;;14.03;77.06;98278.19;4859901;29;46896;-73
2022/11/17 00:59:22;;;;;;;;;5.50;3.75;;;;;14.14;76.41;98293.34;4861819;29;45437;-73
2022/11/17 01:01:48;;;;;;;;;6.75;4.25;;;;;14.06;76.65;98269.88;4861943;29;45480;-73
2022/11/17 01:04:14;;;;;;;;;9.75;2.75;;;;;14.06;76.37;98261.81;4859008;29;45456;-74
2022/11/17 01:06:42;;;;;;;;;6.25;2.50;;;;;14.03;75.94;98272.84;4861557;29;45363;-74
2022/11/17 01:09:18;;;;;;;;;6.75;2.00;;;;;14.12;76.09;98294.50;4862982;29;45367;-73
2022/11/17 01:11:43;;;;;;;;;6.00;3.00;;;;;14.15;76.02;98284.34;4863192;29;45748;-73
2022/11/17 01:14:12;;;;;;;;;2.50;2.50;;;;;14.15;75.85;98276.28;4863021;29;45345;-74
2022/11/17 01:16:38;;;;;;;;;3.75;0.75;;;;;14.13;75.29;98278.22;4844333;29;45467;-74
2022/11/17 01:19:05;;;;;;;;;3.00;2.00;;;;;14.04;75.33;98285.25;4863099;29;45719;-74
2022/11/17 01:21:31;;;;;;;;;4.00;2.00;;;;;14.15;75.41;98283.47;4844753;29;47156;-74
2022/11/17 01:23:58;;;;;;;;;6.75;2.00;;;;;14.12;75.42;98279.22;4850777;29;45339;-73
2022/11/17 01:26:26;;;;;;;;;2.00;2.00;;;;;14.08;74.08;98296.56;4845151;29;45694;-75
2022/11/17 01:28:52;;;;;;;;;1.00;1.00;;;;;14.11;74.78;98276.69;4845625;29;45483;-74
2022/11/17 01:31:23;;;;;;;;;0.50;0.25;;;;;14.07;74.55;98295.72;4861490;29;45461;-74
2022/11/17 01:33:49;;;;;;;;;2.50;1.50;;;;;14.07;74.67;98311.81;4834630;29;45720;-74
2022/11/17 01:36:26;;;;;;;;;3.00;3.00;;;;;14.06;74.34;98320.00;4845792;29;45356;-74
2022/11/17 01:38:51;;;;;;;;;3.50;0.75;;;;;14.02;74.29;98324.78;4861331;29;45658;-73
2022/11/17 01:41:22;;;;;;;;;3.25;0.00;;;;;13.83;74.33;98317.44;4862261;29;45449;-74
2022/11/17 01:44:15;;;;;;;;;2.50;1.00;;;;;14.00;74.15;98329.41;4861720;29;45609;-73
2022/11/17 01:46:40;;;;;;;;;2.00;1.00;;;;;14.03;74.13;98347.94;4861242;29;45373;-73
2022/11/17 01:49:15;;;;;;;;;2.00;0.00;;;;;13.97;73.97;98321.63;4862008;29;45315;-73
2022/11/17 01:51:45;;;;;;;;;0.25;0.00;;;;;13.96;73.81;98327.97;4857530;29;46244;-73
2022/11/17 01:54:16;;;;;;;;;2.00;0.75;;;;;14.13;73.85;98342.63;4860486;29;45645;-73
2022/11/17 01:56:45;;;;;;;;;2.75;1.75;;;;;13.99;73.79;98333.06;4861098;29;45386;-73
2022/11/17 01:59:31;;;;;;;;;1.25;1.00;;;;;14.12;73.75;98358.88;4862489;29;45447;-73
2022/11/17 02:01:57;;;;;;;;;2.75;0.50;;;;;14.09;73.45;98354.59;4863799;29;46655;-73
2022/11/17 02:04:43;;;;;;;;;4.00;1.00;;;;;14.11;73.62;98363.38;4848043;29;46106;-73
2022/11/17 02:07:41;;;;;;;;;4.50;1.25;;;;;14.13;73.65;98369.44;4862888;29;45594;-74
2022/11/17 02:10:07;;;;;;;;;0.25;0.00;;;;;14.15;73.49;98355.91;4823158;29;45572;-73
2022/11/17 02:12:35;;;;;;;;;2.00;1.00;;;;;14.11;73.35;98358.00;4863056;29;46299;-73
2022/11/17 02:15:01;;;;;;;;;1.00;1.00;;;;;14.07;73.28;98359.25;4865082;29;45465;-73
2022/11/17 02:17:36;;;;;;;;;0.00;0.00;;;;;14.18;73.55;98382.47;4848113;29;45403;-73
2022/11/17 02:20:05;;;;;;;;;1.00;1.00;;;;;14.15;73.27;98378.25;4865292;29;45569;-74
2022/11/17 02:22:52;;;;;;;;;2.00;1.00;;;;;14.18;73.06;98382.47;4864484;29;46234;-73
2022/11/17 02:25:20;;;;;;;;;2.00;0.00;;;;;14.17;73.08;98383.47;4863410;29;45364;-73
2022/11/17 02:27:48;;;;;;;;;1.00;0.75;;;;;14.15;73.10;98383.59;4864884;29;45523;-73
2022/11/17 02:30:17;;;;;;;;;0.25;0.25;;;;;14.11;72.48;98375.94;4865400;29;45421;-73
2022/11/17 02:32:54;;;;;;;;;2.00;0.00;;;;;14.12;72.78;98389.22;4859832;29;45610;-74
2022/11/17 02:35:35;;;;;;;;;3.00;1.00;;;;;14.13;72.80;98377.50;4861296;29;45552;-73
2022/11/17 02:38:16;;;;;;;;;1.50;1.00;;;;;14.14;72.92;98399.81;4865601;29;45326;-74
2022/11/17 02:40:48;;;;;;;;;3.00;1.00;;;;;14.12;72.60;98374.97;4864413;29;45629;-73
2022/11/17 02:46:10;;;;;;;;;1.00;0.25;;;;;14.09;72.35;98392.16;4864273;29;45698;-73
2022/11/17 02:48:59;;;;;;;;;1.00;1.00;;;;;14.11;71.95;98408.97;4865254;29;45511;-73
2022/11/17 02:51:24;;;;;;;;;0.00;0.00;;;;;14.00;72.50;98379.50;4863830;29;45658;-73
2022/11/17 02:53:53;;;;;;;;;1.00;0.25;;;;;13.95;71.98;98379.06;4846996;29;47460;-73
2022/11/17 02:56:19;;;;;;;;;1.00;0.75;;;;;13.99;72.09;98400.13;4842644;29;46466;-73
2022/11/17 02:58:49;;;;;;;;;1.00;0.00;;;;;14.08;71.79;98410.09;4865342;29;45574;-73
2022/11/17 03:01:20;;;;;;;;;1.50;0.00;;;;;14.11;72.00;98410.81;4862978;29;45701;-73
2022/11/17 03:03:55;;;;;;;;;0.75;0.75;;;;;14.11;72.04;98416.19;4864697;29;45514;-73
2022/11/17 03:06:37;;;;;;;;;1.75;0.00;;;;;14.09;72.12;98414.47;4862629;29;45408;-73
2022/11/17 03:09:11;;;;;;;;;0.50;0.00;;;;;14.09;71.73;98425.19;4862541;29;45581;-73
2022/11/17 03:12:41;;;;;;;;;1.00;0.00;;;;;14.05;71.68;98425.59;4858109;29;45372;-73
2022/11/17 03:15:15;;;;;;;;;1.50;1.25;;;;;14.08;71.33;98447.66;4780960;29;45546;-73
2022/11/17 03:18:03;;;;;;;;;2.50;0.00;;;;;14.04;71.47;98451.56;4771174;29;47022;-73
2022/11/17 03:20:47;;;;;;;;;0.75;0.00;;;;;14.06;71.42;98443.38;4830092;29;45502;-73
2022/11/17 03:23:18;;;;;;;;;0.25;0.00;;;;;14.05;71.35;98457.78;4864357;29;45438;-73
2022/11/17 03:25:50;;;;;;;;;0.50;0.25;;;;;14.04;71.37;98467.66;4846279;29;47293;-73
2022/11/17 03:28:19;;;;;;;;;0.00;0.00;;;;;13.99;71.35;98452.94;4864415;29;45504;-74
2022/11/17 03:30:46;;;;;;;;;0.50;0.50;;;;;14.06;71.74;98471.06;4864023;29;45500;-75
2022/11/17 03:33:19;;;;;;;;;0.25;0.00;;;;;14.07;71.55;98467.41;4859447;29;45536;-74
2022/11/17 03:35:53;;;;;;;;;0.00;0.00;;;;;14.01;71.08;98477.78;4862440;29;46069;-74
2022/11/17 03:38:24;;;;;;;;;1.00;0.00;;;;;14.03;71.60;98483.88;4860661;29;45271;-74
2022/11/17 03:40:53;;;;;;;;;1.75;0.00;;;;;13.98;71.44;98476.22;4863658;29;45426;-74
2022/11/17 03:43:20;;;;;;;;;0.00;0.00;;;;;14.06;70.96;98495.19;4864439;29;45689;-74
2022/11/17 03:45:53;;;;;;;;;2.00;0.75;;;;;14.05;70.87;98496.19;4863159;29;47165;-73
2022/11/17 03:48:18;;;;;;;;;0.00;0.00;;;;;14.05;70.95;98504.25;4858747;29;45487;-74
2022/11/17 03:51:03;;;;;;;;;2.00;0.00;;;;;14.03;70.59;98508.88;4847507;29;45525;-74
2022/11/17 03:53:29;;;;;;;;;1.00;0.00;;;;;13.97;70.83;98508.53;4858656;29;45929;-74
2022/11/17 03:56:21;;;;;;;;;0.00;0.00;;;;;13.98;71.07;98513.78;4840800;29;48389;-73
2022/11/17 03:59:00;;;;;;;;;0.00;0.00;;;;;14.00;71.17;98527.91;4860333;29;45245;-73
2022/11/17 04:01:29;;;;;;;;;0.25;0.00;;;;;14.01;71.09;98537.63;4850587;29;45450;-73
2022/11/17 04:03:55;;;;;;;;;2.00;1.00;;;;;13.88;70.44;98535.13;4847337;29;45563;-74
2022/11/17 04:06:20;;;;;;;;;0.00;0.00;;;;;13.96;70.39;98547.91;4848028;29;46904;-73
2022/11/17 04:08:45;;;;;;;;;0.00;0.00;;;;;13.90;70.84;98551.09;4867671;29;45269;-74
2022/11/17 04:16:39;;;;;;;;;0.00;0.00;;;;;13.95;70.39;98559.63;4857340;29;45395;-73
2022/11/17 04:19:04;;;;;;;;;0.00;0.00;;;;;14.02;70.12;98571.53;4863157;29;45328;-74
2022/11/17 04:21:29;;;;;;;;;0.00;0.00;;;;;13.99;70.70;98582.53;4862918;29;45404;-74
2022/11/17 04:23:56;;;;;;;;;0.00;0.00;;;;;13.99;70.64;98579.84;4863659;29;45410;-73
2022/11/17 04:29:07;;;;;;;;;0.75;0.00;;;;;13.85;70.99;98574.75;4858324;29;45310;-73
2022/11/17 04:31:32;;;;;;;;;0.00;0.00;;;;;13.94;71.31;98589.25;4842913;29;45703;-74
2022/11/17 04:34:00;;;;;;;;;0.00;0.00;;;;;13.95;72.04;98586.44;4831532;29;45499;-73
2022/11/17 04:36:39;;;;;;;;;0.00;0.00;;;;;13.94;72.35;98578.53;4862627;29;45984;-74
2022/11/17 04:39:05;;;;;;;;;3.00;0.00;;;;;13.89;72.33;98589.59;4855801;29;46073;-74
2022/11/17 04:44:17;;;;;;;;;1.00;0.00;;;;;13.84;72.51;98594.50;4856403;29;45297;-73
2022/11/17 04:46:44;;;;;;;;;0.00;0.00;;;;;13.84;72.39;98592.66;4846152;29;47374;-73
2022/11/17 04:49:10;;;;;;;;;0.00;0.00;;;;;13.92;72.10;98616.19;4857887;29;45344;-73
2022/11/17 04:51:36;;;;;;;;;0.75;0.00;;;;;13.77;71.95;98602.16;4846616;29;45445;-74
2022/11/17 04:54:03;;;;;;;;;0.00;0.00;;;;;13.82;72.00;98610.69;4862557;29;45557;-73
2022/11/17 04:56:29;;;;;;;;;1.75;0.00;;;;;13.86;71.80;98622.88;4858576;29;46736;-73
2022/11/17 04:58:55;;;;;;;;;0.00;0.00;;;;;13.76;71.54;98616.53;4860836;29;45492;-74
2022/11/17 05:01:21;;;;;;;;;0.00;0.00;;;;;13.84;71.55;98642.75;4863369;29;45302;-73
2022/11/17 05:03:50;;;;;;;;;0.00;0.00;;;;;13.84;71.26;98637.41;4846330;29;45501;-73
2022/11/17 05:06:21;;;;;;;;;2.00;0.00;;;;;13.78;71.20;98638.75;4861537;29;45536;-73
2022/11/17 05:08:47;;;;;;;;;0.00;0.00;;;;;13.73;71.12;98621.31;4863022;29;45417;-73
2022/11/17 05:13:58;;;;;;;;;0.00;0.00;;;;;13.75;71.11;98644.34;4862738;29;45326;-73
2022/11/17 05:19:12;;;;;;;;;1.50;0.00;;;;;13.74;71.54;98657.88;4862226;29;45317;-73
2022/11/17 05:21:37;;;;;;;;;0.00;0.00;;;;;13.76;70.79;98662.13;4832966;29;45428;-73
2022/11/17 05:24:03;;;;;;;;;0.00;0.00;;;;;13.65;70.80;98659.47;4862039;29;45434;-73
2022/11/17 05:26:32;;;;;;;;;0.00;0.00;;;;;13.61;71.14;98652.59;4844584;29;47178;-73
2022/11/17 05:28:59;;;;;;;;;0.00;0.00;;;;;13.72;71.06;98682.13;4862919;29;45562;-73
2022/11/17 05:31:26;;;;;;;;;0.00;0.00;;;;;13.60;70.49;98651.78;4863271;29;45577;-74
2022/11/17 05:33:52;;;;;;;;;0.00;0.00;;;;;13.72;70.86;98684.81;4859455;29;45395;-73
2022/11/17 05:36:18;;;;;;;;;0.00;0.00;;;;;13.69;70.59;98677.00;4845277;29;48094;-74
2022/11/17 05:38:46;;;;;;;;;0.00;0.00;;;;;13.62;70.53;98673.09;4865405;29;45477;-74
2022/11/17 05:41:11;;;;;;;;;1.75;0.00;;;;;13.63;70.87;98680.16;4865760;29;45416;-73
2022/11/17 05:43:37;;;;;;;;;1.00;0.00;;;;;13.60;71.04;98691.97;4848573;29;45265;-74
2022/11/17 05:46:02;;;;;;;;;0.00;0.00;;;;;13.61;70.37;98698.19;4865812;29;45512;-74
2022/11/17 05:48:28;;;;;;;;;3.00;0.00;;;;;13.58;71.05;98695.75;4865711;29;45467;-74
2022/11/17 05:50:54;;;;;;;;;2.00;0.00;;;;;13.63;70.73;98699.78;4847238;29;45400;-74
2022/11/17 05:53:20;;;;;;;;;0.00;0.00;;;;;13.64;70.89;98706.00;4865064;29;45524;-74
2022/11/17 05:55:46;;;;;;;;;3.00;0.00;;;;;13.59;70.77;98700.97;4843494;29;46619;-74
2022/11/17 05:58:19;;;;;;;;;3.75;0.50;;;;;13.53;70.09;98696.97;4865185;29;45407;-73
2022/11/17 06:00:45;;;;;;;;;1.00;0.00;;;;;13.61;70.05;98699.03;4865753;29;45553;-74
2022/11/17 06:03:23;;;;;;;;;0.00;0.00;;;;;13.54;70.36;98708.53;4865059;29;45772;-74
2022/11/17 06:05:48;;;;;;;;;1.00;0.00;;;;;13.62;70.10;98721.34;4862130;29;45630;-74
2022/11/17 06:08:15;;;;;;;;;0.00;0.00;;;;;13.52;70.24;98715.84;4862190;29;45434;-74
2022/11/17 06:10:40;;;;;;;;;1.50;0.00;;;;;13.60;69.96;98732.19;4848731;29;45315;-74
2022/11/17 06:13:06;;;;;;;;;0.75;0.00;;;;;13.52;69.72;98715.84;4857453;29;45403;-73
2022/11/17 06:15:33;;;;;;;;;0.00;0.00;;;;;13.58;69.80;98731.47;4865329;29;46137;-73
2022/11/17 06:18:07;;;;;;;;;0.50;0.00;;;;;13.60;69.08;98729.50;4847814;29;45503;-73
2022/11/17 06:20:42;;;;;;;;;1.25;0.00;;;;;13.57;69.12;98732.41;4864752;29;45335;-73
2022/11/17 06:23:09;;;;;;;;;0.00;0.00;;;;;13.51;69.58;98732.88;4862030;29;45281;-74
2022/11/17 06:25:36;;;;;;;;;0.00;0.00;;;;;13.55;69.36;98739.72;4847180;29;47923;-73
2022/11/17 06:28:07;;;;;;;;;0.25;0.00;;;;;13.48;69.63;98725.94;4865115;29;45466;-73
2022/11/17 06:30:34;;;;;;;;;0.00;0.00;;;;;13.48;69.16;98727.75;4863593;29;45620;-73
2022/11/17 06:33:01;;;;;;;;;11.25;9.50;;;;;13.50;69.28;98734.72;4861767;29;45373;-73
2022/11/17 06:35:32;;;;;;;;;5.00;4.00;;;;;13.41;69.10;98721.16;4847185;29;46746;-73
2022/11/17 06:37:57;;;;;;;;;9.00;9.00;;;;;13.45;69.11;98728.00;4861803;29;45649;-73
2022/11/17 06:40:22;;;;;;;;;0.00;0.00;;;;;13.49;69.16;98743.72;4848464;29;45384;-73
2022/11/17 06:43:07;;;;;;;;;1.75;1.00;;;;;13.40;68.91;98732.84;4862846;29;50968;-73
2022/11/17 06:45:43;;;;;;;;;1.00;1.00;;;;;13.41;69.35;98727.38;4864793;29;46397;-73
2022/11/17 06:48:10;;;;;;;;;0.00;0.00;;;;;13.46;69.46;98741.25;4857842;29;45508;-73
2022/11/17 06:50:35;;;;;;;;;0.25;0.00;;;;;13.45;69.64;98738.72;4864236;29;45790;-73
2022/11/17 06:53:04;;;;;;;;;0.00;0.00;;;;;13.36;69.20;98715.31;4847100;29;45675;-73
2022/11/17 06:55:29;;;;;;;;;0.50;0.00;;;;;13.30;69.58;98705.88;4861898;29;46728;-73
2022/11/17 06:58:10;;;;;;;;;0.00;0.00;;;;;13.48;69.74;98736.66;4863749;29;46912;-73
2022/11/17 07:00:36;;;;;;;;;2.50;0.00;;;;;13.32;69.61;98720.88;4848443;29;45343;-73
2022/11/17 07:03:08;;;;;;;;;0.00;0.00;;;;;13.36;69.42;98731.38;4862888;29;45700;-73
2022/11/17 07:05:35;;;;;;;;;1.75;0.00;;;;;13.51;69.59;98759.69;4862714;29;46550;-73
2022/11/17 07:08:03;;;;;;;;;2.25;0.50;;;;;13.50;70.10;98758.84;4859689;29;45599;-73
2022/11/17 07:10:30;;;;;;;;;0.00;0.00;;;;;13.49;69.84;98765.16;4847940;29;45684;-73
2022/11/17 07:12:56;;;;;;;;;2.50;0.00;;;;;13.37;69.49;98750.03;4862081;29;45621;-73
2022/11/17 07:15:21;;;;;;;;;5.25;0.00;;;;;13.36;69.76;98758.19;4864014;29;45340;-73
2022/11/17 07:17:47;;;;;;;;;2.50;0.00;;;;;13.37;69.51;98757.22;4846018;29;61343;-73
2022/11/17 07:20:13;;;;;;;;;2.00;0.00;;;;;13.34;69.88;98755.59;4864059;29;45387;-73
2022/11/17 07:22:40;;;;;;;;;2.00;1.00;;;;;13.50;69.86;98774.91;4862011;29;45550;-73
2022/11/17 07:25:06;;;;;;;;;0.00;0.00;;;;;13.48;69.79;98779.56;4864060;29;46398;-74
2022/11/17 07:27:31;;;;;;;;;0.25;0.25;;;;;13.32;69.82;98755.72;4861660;29;46085;-71
2022/11/17 07:29:57;;;;;;;;;1.75;1.00;;;;;13.45;69.64;98776.25;4863313;29;45511;-71
2022/11/17 07:32:23;;;;;;;;;3.25;1.50;;;;;13.37;69.82;98771.47;4863063;29;48439;-71
2022/11/17 07:34:49;;;;;;;;;1.00;1.00;;;;;13.47;70.37;98776.97;4853325;29;47292;-71
2022/11/17 07:37:14;;;;;;;;;0.50;0.50;;;;;13.49;69.66;98785.75;4848727;29;45393;-71
2022/11/17 07:39:39;;;;;;;;;4.50;0.75;;;;;13.51;70.03;98791.84;4848046;29;45604;-71
2022/11/17 07:42:05;;;;;;;;;2.00;1.00;;;;;13.49;69.91;98799.16;4848296;29;54997;-70
2022/11/17 07:44:30;;;;;;;;;2.00;1.00;;;;;13.51;69.98;98800.78;4864505;29;45577;-70
2022/11/17 07:46:55;;;;;;;;;1.50;1.50;;;;;13.46;70.06;98784.16;4864239;29;52080;-70
2022/11/17 07:49:21;;;;;;;;;2.00;1.00;;;;;13.54;70.16;98796.97;4855146;29;45331;-71
2022/11/17 07:51:46;;;;;;;;;2.50;1.00;;;;;13.49;70.17;98791.13;4863836;29;45618;-71
2022/11/17 07:54:11;;;;;;;;;1.50;0.50;;;;;13.60;70.00;98809.06;4847518;29;47638;-71
2022/11/17 07:56:37;;;;;;;;;3.00;1.75;;;;;13.56;69.83;98804.91;4857809;29;45447;-71
2022/11/17 07:59:02;;;;;;;;;2.00;2.00;;;;;13.57;69.87;98804.81;4864943;29;52172;-71
2022/11/17 08:01:28;;;;;;;;;1.00;1.00;;;;;13.57;70.15;98818.19;4865223;29;46549;-71
2022/11/17 08:03:53;;;;;;;;;1.00;1.00;;;;;13.50;70.00;98799.03;4864001;29;45417;-71
2022/11/17 08:06:19;;;;;;;;;0.50;0.00;;;;;13.64;70.39;98832.00;4860624;29;45628;-71
2022/11/17 08:08:44;;;;;;;;;3.50;0.00;;;;;13.56;70.79;98808.44;4863386;29;45572;-72
2022/11/17 08:11:11;;;;;;;;;2.75;2.00;;;;;13.57;70.82;98820.03;4863050;29;45867;-71
2022/11/17 08:13:38;;;;;;;;;0.00;0.00;;;;;13.60;71.07;98828.69;4863993;29;46235;-73
2022/11/17 08:16:05;;;;;;;;;2.50;0.00;;;;;13.46;70.85;98802.91;4861707;29;45555;-72
2022/11/17 08:18:31;;;;;;;;;3.00;0.00;;;;;13.62;71.33;98820.53;4863351;29;45311;-72
2022/11/17 08:21:06;;;;;;;;;1.50;0.50;;;;;13.64;71.17;98821.28;4864673;29;45338;-72
2022/11/17 08:23:31;;;;;;;;;1.50;1.50;;;;;13.61;71.08;98811.63;4859751;29;45433;-72
2022/11/17 08:25:57;;;;;;;;;0.75;0.75;;;;;13.70;71.04;98824.34;4862364;29;45772;-71
2022/11/17 08:28:22;;;;;;;;;1.75;1.00;;;;;13.57;71.04;98822.72;4854176;29;45737;-73
2022/11/17 08:30:48;;;;;;;;;1.50;0.25;;;;;13.54;71.08;98807.72;4862049;29;45348;-73
2022/11/17 08:33:14;;;;;;;;;2.00;0.75;;;;;13.63;71.30;98819.56;4861460;29;45427;-73
2022/11/17 08:35:39;;;;;;;;;2.50;1.50;;;;;13.55;70.84;98806.75;4859077;29;73212;-73
2022/11/17 08:38:05;;;;;;;;;0.50;0.50;;;;;13.63;71.24;98822.22;4862716;29;53615;-73
2022/11/17 08:40:31;;;;;;;;;0.75;0.75;;;;;13.64;70.76;98816.75;4862081;29;45549;-73
2022/11/17 08:42:58;;;;;;;;;2.00;1.00;;;;;13.72;70.91;98840.31;4860370;29;46214;-73
2022/11/17 08:45:23;;;;;;;;;0.00;0.00;;;;;13.64;70.71;98811.41;4846689;29;45540;-73
2022/11/17 08:47:49;;;;;;;;;1.00;1.00;;;;;13.61;70.63;98814.31;4845671;29;45497;-73
2022/11/17 08:50:16;;;;;;;;;2.25;0.00;;;;;13.74;70.86;98829.47;4846524;29;45521;-73
2022/11/17 08:52:42;;;;;;;;;0.00;0.00;;;;;13.68;70.75;98823.63;4843367;29;48255;-73
2022/11/17 08:55:07;;;;;;;;;4.00;1.00;;;;;13.54;71.01;98805.03;4843757;29;45541;-73
2022/11/17 08:57:33;;;;;;;;;0.00;0.00;;;;;13.57;70.72;98804.81;4860519;29;46933;-73
2022/11/17 08:59:58;;;;;;;;;3.00;1.75;;;;;13.76;70.87;98836.41;4833559;29;45450;-73
2022/11/17 09:02:25;;;;;;;;;5.00;1.00;;;;;13.59;71.11;98810.88;4862238;29;46579;-73
2022/11/17 09:04:50;;;;;;;;;4.50;1.00;;;;;13.73;71.04;98825.91;4835265;29;45721;-73
2022/11/17 09:07:15;;;;;;;;;1.25;0.25;;;;;13.74;70.66;98824.97;4864963;29;45465;-73
2022/11/17 09:09:40;;;;;;;;;2.00;1.00;;;;;13.76;71.15;98827.53;4865424;29;52856;-73
2022/11/17 09:12:06;;;;;;;;;3.25;1.00;;;;;13.63;71.00;98815.06;4864806;29;46171;-73
2022/11/17 09:14:31;;;;;;;;;0.50;0.00;;;;;13.59;71.02;98818.94;4851328;29;45681;-74
2022/11/17 09:16:57;;;;;;;;;5.00;2.00;;;;;13.73;71.22;98835.81;4866204;29;45441;-74
2022/11/17 09:19:22;;;;;;;;;3.25;1.00;;;;;13.69;71.29;98844.06;4864421;29;72922;-73
2022/11/17 09:21:47;;;;;;;;;3.00;2.00;;;;;13.61;71.13;98822.34;4865437;29;46395;-73
2022/11/17 09:24:13;;;;;;;;;1.50;1.00;;;;;13.61;71.40;98830.38;4863490;29;46135;-73
2022/11/17 09:26:41;;;;;;;;;2.75;1.00;;;;;13.59;71.96;98823.44;4864370;29;45482;-73
2022/11/17 09:29:07;;;;;;;;;2.75;1.00;;;;;13.62;72.07;98816.03;4841197;29;46974;-73
2022/11/17 09:31:34;;;;;;;;;2.25;0.50;;;;;13.73;72.37;98841.16;4861948;29;46055;-73
2022/11/17 09:34:00;;;;;;;;;1.00;1.00;;;;;13.52;71.94;98809.66;4860765;29;45536;-73
2022/11/17 09:36:25;;;;;;;;;0.00;0.00;;;;;13.55;72.19;98822.81;4847516;29;45491;-74
2022/11/17 09:38:51;;;;;;;;;0.00;0.00;;;;;13.61;72.40;98848.31;4848539;29;45384;-73
2022/11/17 09:41:30;;;;;;;;;1.00;0.00;;;;;13.60;72.13;98865.34;4848579;29;46952;-74
2022/11/17 09:44:10;;;;;;;;;1.00;0.00;;;;;13.55;72.91;98863.03;4858506;29;45637;-73
2022/11/17 09:47:00;;;;;;;;;0.00;0.00;;;;;13.55;73.02;98862.16;4863314;29;46220;-74
2022/11/17 09:49:47;;;;;;;;;0.00;0.00;;;;;13.41;73.63;98849.78;4847862;29;45642;-73
2022/11/17 09:52:34;;;;;;;;;0.00;0.00;;;;;13.51;73.62;98872.25;4860238;29;46264;-73
2022/11/17 09:55:30;;;;;;;;;0.75;0.50;;;;;13.59;73.99;98874.38;4861796;29;46438;-73
2022/11/17 09:58:05;;;;;;;;;2.00;1.00;;;;;13.61;73.99;98875.97;4841171;29;45579;-73
2022/11/17 10:00:32;;;;;;;;;2.00;1.00;;;;;13.62;74.51;98866.13;4862309;29;45548;-73
2022/11/17 10:02:58;;;;;;;;;2.00;2.00;;;;;13.46;74.75;98845.78;4864276;29;46233;-74
2022/11/17 10:05:30;;;;;;;;;1.00;1.00;;;;;13.67;75.43;98875.50;4865751;29;45525;-74
2022/11/17 10:07:59;;;;;;;;;3.50;2.00;;;;;13.65;75.58;98864.06;4866133;29;45419;-73
2022/11/17 10:10:36;;;;;;;;;4.25;3.00;;;;;13.67;75.50;98872.84;4865197;29;45527;-73
2022/11/17 10:13:04;;;;;;;;;2.25;1.25;;;;;13.56;75.23;98856.69;4861691;29;45513;-73
2022/11/17 10:15:41;;;;;;;;;2.25;1.00;;;;;13.69;75.50;98903.06;4849360;29;45326;-73
2022/11/17 10:18:14;;;;;;;;;3.00;1.00;;;;;13.56;75.17;98872.78;4865241;29;45510;-74
2022/11/17 10:20:41;;;;;;;;;0.00;0.00;;;;;13.57;75.48;98871.81;4865321;29;45732;-74
2022/11/17 10:23:11;;;;;;;;;3.00;1.50;;;;;13.58;75.29;98862.81;4849284;29;45540;-73
2022/11/17 10:25:41;;;;;;;;;4.00;1.00;;;;;13.78;75.61;98889.94;4866174;29;45485;-74
2022/11/17 10:28:21;;;;;;;;;3.75;0.25;;;;;13.75;75.46;98880.31;4863684;29;45851;-76
2022/11/17 10:31:01;;;;;;;;;1.00;1.00;;;;;13.68;74.77;98863.84;4864638;29;45364;-72
2022/11/17 10:33:39;;;;;;;;;3.00;1.75;;;;;13.77;74.74;98869.47;4861321;29;45649;-73
2022/11/17 10:36:13;;;;;;;;;1.50;0.50;;;;;13.77;75.12;98859.59;4863983;29;45587;-73
2022/11/17 10:38:44;;;;;;;;;2.50;1.00;;;;;13.85;74.89;98864.38;4864093;29;45591;-73
2022/11/17 10:41:14;;;;;;;;;2.00;1.00;;;;;13.92;74.47;98876.34;4861354;29;45926;-72
2022/11/17 10:43:55;;;;;;;;;2.00;0.25;;;;;13.87;74.39;98870.47;4864080;29;45823;-74
2022/11/17 10:46:22;;;;;;;;;2.75;0.75;;;;;13.89;73.96;98863.16;4864027;29;45736;-73
2022/11/17 10:49:01;;;;;;;;;2.25;1.00;;;;;13.97;73.77;98873.31;4866919;29;45376;-75
2022/11/17 10:51:32;;;;;;;;;1.00;1.00;;;;;13.99;73.61;98872.22;4847987;29;45694;-73
2022/11/17 10:54:03;;;;;;;;;2.00;1.00;;;;;13.94;73.71;98869.03;4864695;29;45599;-73
2022/11/17 10:56:31;;;;;;;;;1.00;1.00;;;;;13.86;74.19;98849.97;4862290;29;45528;-74
2022/11/17 10:59:14;;;;;;;;;5.50;1.00;;;;;13.88;73.96;98853.41;4863414;29;45561;-74
2022/11/17 11:01:41;;;;;;;;;1.00;1.00;;;;;14.07;73.84;98866.28;4847041;29;45403;-74
2022/11/17 11:04:35;;;;;;;;;3.00;1.00;;;;;14.11;73.85;98881.16;4864027;29;46156;-74
2022/11/17 11:07:21;;;;;;;;;1.50;1.00;;;;;14.05;74.12;98863.72;4840701;29;45620;-74
2022/11/17 11:10:05;;;;;;;;;0.25;0.25;;;;;14.15;74.01;98871.03;4864083;29;46056;-74
2022/11/17 11:12:51;;;;;;;;;1.50;1.25;;;;;14.16;73.80;98878.97;4862807;29;45677;-73
2022/11/17 11:15:22;;;;;;;;;3.00;2.00;;;;;13.99;73.39;98844.56;4864604;29;45725;-73
2022/11/17 11:17:48;;;;;;;;;3.00;1.00;;;;;14.17;73.20;98866.44;4864869;29;45665;-74
2022/11/17 11:20:16;;;;;;;;;2.50;1.00;;;;;14.13;73.07;98854.22;4864878;29;45494;-74
2022/11/17 11:23:01;;;;;;;;;2.50;2.50;;;;;14.07;73.07;98842.13;4865146;29;45685;-74
2022/11/17 11:25:33;;;;;;;;;4.00;1.25;;;;;14.03;72.80;98836.16;4864835;29;46614;-74
2022/11/17 11:28:07;;;;;;;;;2.00;0.50;;;;;14.23;72.93;98858.75;4864397;29;45776;-74
2022/11/17 11:30:41;;;;;;;;;2.00;1.00;;;;;14.23;72.60;98863.25;4869251;29;45462;-74
2022/11/17 11:33:32;;;;;;;;;2.00;1.00;;;;;14.27;72.72;98856.69;4856327;29;45685;-73
2022/11/17 11:36:19;;;;;;;;;1.50;1.00;;;;;14.28;71.82;98855.69;4846213;29;45970;-73
2022/11/17 11:38:56;;;;;;;;;1.50;1.00;;;;;14.31;71.98;98850.09;4856791;29;45760;-74
2022/11/17 11:41:46;;;;;;;;;1.00;1.00;;;;;14.31;71.89;98843.88;4843697;29;45424;-73
2022/11/17 11:44:27;;;;;;;;;0.50;0.50;;;;;14.39;71.48;98847.66;4855807;29;45982;-73
2022/11/17 11:47:19;;;;;;;;;1.75;0.75;;;;;14.32;71.41;98837.56;4860995;29;45420;-73
2022/11/17 11:49:52;;;;;;;;;4.00;1.25;;;;;14.42;71.11;98852.81;4863268;29;45699;-74
2022/11/17 11:52:20;;;;;;;;;2.00;1.00;;;;;14.43;69.92;98849.16;4862739;29;45389;-73
2022/11/17 11:55:13;;;;;;;;;4.00;0.50;;;;;14.34;70.10;98828.38;4861888;29;45444;-73
2022/11/17 11:57:47;;;;;;;;;3.50;1.00;;;;;14.32;69.33;98833.03;4859002;29;45585;-73
2022/11/17 12:00:14;;;;;;;;;1.00;0.00;;;;;14.50;69.37;98857.56;4863290;29;45469;-73
2022/11/17 12:02:48;;;;;;;;;2.75;1.00;;;;;14.36;69.44;98844.38;4863607;29;45532;-73
2022/11/17 12:05:25;;;;;;;;;1.00;0.25;;;;;14.45;69.78;98863.31;4862696;29;45511;-73
2022/11/17 12:08:05;;;;;;;;;1.00;1.00;;;;;14.48;68.91;98869.41;4863595;29;45332;-73
2022/11/17 12:11:58;;;;;;;;;1.00;0.00;;;;;14.45;68.66;98863.31;4857068;29;45565;-73
2022/11/17 12:13:47;;;;;;;;;1.00;0.00;;;;;14.19;68.37;98819.69;4861921;29;45587;-73
2022/11/17 12:16:30;;;;;;;;;1.00;1.00;;;;;14.46;67.59;98862.31;4862834;29;45405;-73